LEAB/ABC METAR and TAF weather

Enter ICAO airport designator
Station Type Date Time Source
LEAB METAR 2022/06/28 15:30 UTC NOAA

LEAB 281530Z VRB06KT CAVOK 31/07 Q1018 NOSIG


Station Type Date Time Source
LEAB Decoded METAR 2022/06/28 15:30 UTC NOAA

Albacete / Los Llanos, Spain (LEAB) 38-57N 001-51W 704M
Jun 28, 2022 - 11:30 AM EDT / 2022.06.28 1530 UTC
Wind: Variable at 7 MPH (6 KT):0
Visibility: greater than 7 mile(s):0
Temperature: 87 F (31 C)
Dew Point: 44 F (7 C)
Relative Humidity: 22%
Pressure (altimeter): 30.06 in. Hg (1018 hPa)
ob: LEAB 281530Z VRB06KT CAVOK 31/07 Q1018 NOSIG
cycle: 15

Station Type Date Time Source
LEAB TAF 2022/06/28 12:27 UTC NOAA

TAF LEAB 281100Z 2812/2912 16009KT CAVOK TX33/2815Z TN16/2905Z

Example: see airport list